createdAt,value
2023-05-02T00:03:37.671Z,6.10
2023-05-02T00:08:40.721Z,5.80
2023-05-02T00:13:44.263Z,5.60
2023-05-02T00:18:47.032Z,5.80
2023-05-02T00:23:51.412Z,5.70
2023-05-02T00:28:54.235Z,6.20
2023-05-02T00:33:57.306Z,6.70
2023-05-02T00:39:00.048Z,5.90
2023-05-02T00:44:02.934Z,8.00
2023-05-02T00:49:06.083Z,7.00
2023-05-02T00:54:08.952Z,7.90
2023-05-02T00:59:12.324Z,6.90
2023-05-02T01:04:50.788Z,7.10
2023-05-02T01:10:11.952Z,6.50
2023-05-02T01:15:22.564Z,6.30
2023-05-02T01:20:28.773Z,6.00
2023-05-02T01:25:55.193Z,6.40
2023-05-02T01:30:59.567Z,6.10
2023-05-02T01:36:03.832Z,5.40
2023-05-02T01:41:08.288Z,6.40
2023-05-02T01:46:14.467Z,5.90
2023-05-02T01:51:19.364Z,7.00
2023-05-02T01:56:25.370Z,6.40
2023-05-02T02:01:31.311Z,6.30
2023-05-02T02:06:35.035Z,6.20
2023-05-02T02:11:46.165Z,6.60
2023-05-02T02:16:53.673Z,6.40
2023-05-02T02:21:59.025Z,6.60
2023-05-02T02:27:02.621Z,6.00
2023-05-02T02:32:05.669Z,6.70
2023-05-02T02:37:49.928Z,6.00
2023-05-02T02:43:17.031Z,6.40
2023-05-02T02:48:27.944Z,6.00
2023-05-02T02:54:23.033Z,6.00
2023-05-02T02:59:34.175Z,6.40
2023-05-02T03:04:42.322Z,6.30
2023-05-02T03:09:47.441Z,7.20
2023-05-02T03:14:50.351Z,5.80
2023-05-02T03:19:53.166Z,6.40
2023-05-02T03:24:55.944Z,6.70
2023-05-02T03:29:58.884Z,6.10
2023-05-02T03:35:01.810Z,6.10
2023-05-02T03:40:05.161Z,6.00
2023-05-02T03:45:08.989Z,5.60
2023-05-02T03:50:11.804Z,6.70
2023-05-02T03:55:14.613Z,6.40
2023-05-02T04:00:17.705Z,6.80
2023-05-02T04:05:20.558Z,6.90
2023-05-02T04:10:23.348Z,6.30
2023-05-02T04:15:26.159Z,7.10
2023-05-02T04:20:29.561Z,9.20
2023-05-02T04:25:32.380Z,7.90
2023-05-02T04:30:36.255Z,6.90
2023-05-02T04:35:41.943Z,7.00
2023-05-02T04:40:44.775Z,7.80
2023-05-02T04:45:47.510Z,6.20
2023-05-02T04:50:50.388Z,7.60
2023-05-02T04:55:53.178Z,7.20
2023-05-02T05:00:55.932Z,7.60
2023-05-02T05:05:59.053Z,6.90
2023-05-02T05:11:02.187Z,7.20
2023-05-02T05:16:05.317Z,6.80
2023-05-02T05:26:16.388Z,6.90
2023-05-02T05:31:19.148Z,7.40
2023-05-02T05:36:23.570Z,8.90
2023-05-02T05:41:26.793Z,6.90
2023-05-02T05:46:29.627Z,6.20
2023-05-02T05:51:32.418Z,8.10
2023-05-02T05:56:35.426Z,7.10
2023-05-02T06:06:41.219Z,7.40
2023-05-02T06:11:43.981Z,7.70
2023-05-02T06:16:46.709Z,8.30
2023-05-02T06:21:49.513Z,9.90
2023-05-02T06:26:52.243Z,9.50
2023-05-02T06:31:57.062Z,9.20
2023-05-02T06:37:00.421Z,9.30
2023-05-02T06:42:03.615Z,10.10
2023-05-02T06:47:07.650Z,9.50
2023-05-02T06:52:10.556Z,9.20
2023-05-02T07:02:15.989Z,8.60
2023-05-02T07:07:20.666Z,8.70
2023-05-02T07:12:23.426Z,8.50
2023-05-02T07:17:26.439Z,7.90
2023-05-02T07:22:29.226Z,9.40
2023-05-02T07:27:32.039Z,9.00
2023-05-02T07:32:34.828Z,8.70
2023-05-02T07:42:41.916Z,8.80
2023-05-02T07:47:45.892Z,8.20
2023-05-02T07:52:48.734Z,9.10
2023-05-02T07:57:51.497Z,8.40
2023-05-02T08:02:54.308Z,8.50
2023-05-02T08:07:57.170Z,7.40
2023-05-02T08:12:59.994Z,8.70
2023-05-02T08:18:03.070Z,7.60
2023-05-02T08:23:05.962Z,8.50
2023-05-02T08:33:11.713Z,8.10
2023-05-02T08:38:14.523Z,7.90
2023-05-02T08:48:21.066Z,8.90
2023-05-02T08:53:24.991Z,8.70
2023-05-02T08:58:27.849Z,9.50
2023-05-02T09:08:37.619Z,9.40
2023-05-02T09:13:42.964Z,7.90
2023-05-02T09:18:48.234Z,9.20
2023-05-02T09:23:55.731Z,8.30
2023-05-02T09:29:00.402Z,9.00
2023-05-02T09:34:11.596Z,11.30
2023-05-02T09:39:23.761Z,11.10
2023-05-02T09:44:37.516Z,10.00
2023-05-02T09:49:40.193Z,11.30
2023-05-02T09:54:43.103Z,10.70
2023-05-02T10:05:01.530Z,10.00
2023-05-02T10:10:06.498Z,10.80
2023-05-02T10:15:12.586Z,10.60
2023-05-02T10:20:22.652Z,10.50
2023-05-02T10:25:25.624Z,10.10
2023-05-02T10:30:31.079Z,11.20
2023-05-02T10:35:36.453Z,10.00
2023-05-02T10:40:41.163Z,10.40
2023-05-02T10:45:43.976Z,12.10
2023-05-02T10:50:55.540Z,11.60
2023-05-02T10:56:28.450Z,11.60
2023-05-02T11:01:37.985Z,9.70
2023-05-02T11:07:05.493Z,9.70
2023-05-02T11:12:08.788Z,8.50
2023-05-02T11:17:11.722Z,6.40
2023-05-02T11:22:17.700Z,6.40
2023-05-02T11:27:33.671Z,5.50
2023-05-02T11:32:45.850Z,6.30
2023-05-02T11:38:03.468Z,6.20
2023-05-02T11:43:17.902Z,5.50
2023-05-02T11:48:22.789Z,5.60
2023-05-02T11:53:29.392Z,5.90
2023-05-02T11:58:33.765Z,6.20
2023-05-02T12:03:37.382Z,5.70
2023-05-02T12:08:41.651Z,5.50
2023-05-02T12:13:47.140Z,5.30
2023-05-02T12:18:50.428Z,5.10
2023-05-02T12:23:53.722Z,4.80
2023-05-02T12:28:57.290Z,5.00
2023-05-02T12:34:01.419Z,5.90
2023-05-02T12:39:04.735Z,5.10
2023-05-02T12:44:08.016Z,5.50
2023-05-02T12:49:12.467Z,4.90
2023-05-02T12:54:21.398Z,6.90
2023-05-02T12:59:28.985Z,5.50
2023-05-02T13:04:40.312Z,4.60
2023-05-02T13:09:43.109Z,5.60
2023-05-02T13:14:45.998Z,5.50
2023-05-02T13:19:58.137Z,6.40
2023-05-02T13:25:05.695Z,6.30
2023-05-02T13:30:09.962Z,7.30
2023-05-02T13:35:14.239Z,6.60
2023-05-02T13:40:17.093Z,7.90
2023-05-02T13:45:20.101Z,16.70
2023-05-02T13:50:23.192Z,9.80
2023-05-02T13:55:26.251Z,8.40
2023-05-02T14:00:29.449Z,10.40
2023-05-02T14:05:32.196Z,11.20
2023-05-02T14:10:36.477Z,10.90
2023-05-02T14:15:39.213Z,9.00
2023-05-02T14:20:42.381Z,9.20
2023-05-02T14:25:45.133Z,10.20
2023-05-02T14:30:51.491Z,7.80
2023-05-02T14:35:54.326Z,9.90
2023-05-02T14:40:57.172Z,8.60
2023-05-02T14:46:00.036Z,6.40
2023-05-02T14:51:04.137Z,8.40
2023-05-02T14:56:12.530Z,18.90
2023-05-02T15:01:20.560Z,7.90
2023-05-02T15:06:23.382Z,19.00
2023-05-02T15:16:29.941Z,8.10
2023-05-02T15:21:32.908Z,9.20
2023-05-02T15:26:35.890Z,7.20
2023-05-02T15:31:38.699Z,17.00
2023-05-02T15:36:41.606Z,7.70
2023-05-02T15:41:47.814Z,10.40
2023-05-02T15:46:50.805Z,7.10
2023-05-02T15:56:56.372Z,8.20
2023-05-02T16:01:59.181Z,6.40
2023-05-02T16:07:02.507Z,11.20
2023-05-02T16:12:07.053Z,12.70
2023-05-02T16:17:09.834Z,7.60
2023-05-02T16:22:12.709Z,6.70
2023-05-02T16:27:15.753Z,7.90
2023-05-02T16:32:18.568Z,19.30
2023-05-02T16:37:21.430Z,10.00
2023-05-02T16:42:24.417Z,10.00
2023-05-02T16:47:28.391Z,15.20
2023-05-02T16:52:31.485Z,12.30
2023-05-02T16:57:34.311Z,15.10
2023-05-02T17:02:37.180Z,7.00
2023-05-02T17:07:40.176Z,12.20
2023-05-02T17:12:44.112Z,6.40
2023-05-02T17:17:46.896Z,5.40
2023-05-02T17:22:49.728Z,9.70
2023-05-02T17:27:52.546Z,8.30
2023-05-02T17:32:55.349Z,8.20
2023-05-02T17:43:01.671Z,8.10
2023-05-02T17:48:04.497Z,5.20
2023-05-02T17:53:08.358Z,6.60
2023-05-02T17:58:11.133Z,6.80
2023-05-02T18:03:13.965Z,12.00
2023-05-02T18:08:17.052Z,6.10
2023-05-02T18:13:19.826Z,6.50
2023-05-02T18:18:22.709Z,8.30
2023-05-02T18:23:25.442Z,8.70
2023-05-02T18:28:28.235Z,9.80
2023-05-02T18:33:31.277Z,6.50
2023-05-02T18:38:36.120Z,5.10
2023-05-02T18:43:38.872Z,4.60
2023-05-02T18:48:41.641Z,5.90
2023-05-02T18:53:44.559Z,8.60
2023-05-02T18:58:49.081Z,6.10
2023-05-02T19:03:54.955Z,9.80
2023-05-02T19:08:58.779Z,4.80
2023-05-02T19:14:03.635Z,5.20
2023-05-02T19:19:07.248Z,6.00
2023-05-02T19:24:09.998Z,4.10
2023-05-02T19:29:13.033Z,8.80
2023-05-02T19:34:16.342Z,15.00
2023-05-02T19:39:19.284Z,20.50
2023-05-02T19:44:22.098Z,16.20
2023-05-02T19:49:24.841Z,6.00
2023-05-02T19:54:27.648Z,7.60
2023-05-02T19:59:30.505Z,7.90
2023-05-02T20:04:33.247Z,6.10
2023-05-02T20:09:36.095Z,6.50
2023-05-02T20:14:40.902Z,6.30
2023-05-02T20:19:45.443Z,8.60
2023-05-02T20:24:48.240Z,7.50
2023-05-02T20:29:52.074Z,5.30
2023-05-02T20:34:54.855Z,7.20
2023-05-02T20:39:57.757Z,7.00
2023-05-02T20:45:02.271Z,8.80
2023-05-02T20:50:09.445Z,8.00
2023-05-02T20:55:12.220Z,4.20
2023-05-02T21:00:15.654Z,8.00
2023-05-02T21:05:18.527Z,8.30
2023-05-02T21:10:22.579Z,10.20
2023-05-02T21:15:25.430Z,9.50
2023-05-02T21:20:28.339Z,9.80
2023-05-02T21:25:31.194Z,11.50
2023-05-02T21:30:35.104Z,11.70
2023-05-02T21:35:37.818Z,27.20
2023-05-02T21:40:40.776Z,12.80
2023-05-02T21:45:47.514Z,23.60
2023-05-02T21:50:51.022Z,16.30
2023-05-02T21:55:53.801Z,15.60
2023-05-02T22:00:56.646Z,15.30
2023-05-02T22:06:04.959Z,23.70
2023-05-02T22:11:09.391Z,36.00
2023-05-02T22:16:12.260Z,20.50
2023-05-02T22:21:16.026Z,17.40
2023-05-02T22:26:18.752Z,22.40
2023-05-02T22:31:21.751Z,15.50
2023-05-02T22:36:24.593Z,14.30
2023-05-02T22:41:27.350Z,14.70
2023-05-02T22:46:30.217Z,20.60
2023-05-02T22:51:33.516Z,18.50
2023-05-02T23:01:39.069Z,34.10
2023-05-02T23:06:41.908Z,53.00
2023-05-02T23:11:44.654Z,47.00
2023-05-02T23:16:49.952Z,38.20
2023-05-02T23:21:52.687Z,39.60
2023-05-02T23:26:55.555Z,50.40
2023-05-02T23:31:58.656Z,11.90
2023-05-02T23:42:04.537Z,3.80
2023-05-02T23:47:07.640Z,3.50
2023-05-02T23:52:10.889Z,4.60
2023-05-02T23:57:13.648Z,4.50
